Time;durP1;ratioP1;P1;durP2;ratioP2;P2;SDS_P1;SDS_P2;PMS_P1;PMS_P2;Temp;Humidity;BMP_temperature;BMP_pressure;BME280_temperature;BME280_humidity;BME280_pressure;Samples;Min_cycle;Max_cycle;Signal;HPM_P1;HPM_P2
2024/02/10 00:00:22;;;;;;;1.10;1.00;;;10.20;99.90;;;10.84;100.00;95294.13;4981509;28;20486;-77
2024/02/10 00:02:51;;;;;;;1.10;1.00;;;10.20;99.90;;;10.77;100.00;95293.59;4981929;28;20479;-77
2024/02/10 00:05:22;;;;;;;1.10;1.00;;;10.20;99.90;;;10.78;100.00;95300.41;4981861;28;20562;-76
2024/02/10 00:07:56;;;;;;;1.20;1.10;;;10.30;99.90;;;10.80;100.00;95300.91;4981152;28;20505;-77
2024/02/10 00:10:27;;;;;;;1.20;1.10;;;10.20;99.90;;;10.82;100.00;95298.84;4981134;28;20487;-76
2024/02/10 00:12:57;;;;;;;1.57;1.03;;;10.20;99.90;;;10.83;100.00;95301.19;4981181;28;20572;-77
2024/02/10 00:15:27;;;;;;;1.43;1.10;;;10.10;99.90;;;10.81;100.00;95300.69;4981898;28;21224;-77
2024/02/10 00:17:56;;;;;;;1.17;1.07;;;10.20;99.90;;;10.81;100.00;95294.66;4981702;28;20467;-77
2024/02/10 00:20:25;;;;;;;1.00;0.80;;;10.20;99.90;;;10.81;100.00;95303.28;4982077;28;20460;-77
2024/02/10 00:22:56;;;;;;;0.90;0.80;;;10.30;99.90;;;10.79;100.00;95299.38;4980827;28;21003;-76
2024/02/10 00:25:25;;;;;;;1.10;1.00;;;10.20;99.90;;;10.84;100.00;95299.38;4981396;28;20483;-77
2024/02/10 00:27:53;;;;;;;1.10;1.00;;;10.30;99.90;;;10.85;100.00;95303.56;4981460;28;20484;-77
2024/02/10 00:30:23;;;;;;;1.10;1.00;;;10.20;99.90;;;10.79;100.00;95297.53;4981222;28;20958;-77
2024/02/10 00:32:52;;;;;;;4.03;1.30;;;10.20;99.90;;;10.76;100.00;95298.03;4981705;28;20480;-77
2024/02/10 00:35:22;;;;;;;2.20;1.37;;;10.20;99.90;;;10.77;100.00;95296.22;4981592;28;20472;-77
2024/02/10 00:37:53;;;;;;;1.00;0.90;;;10.20;99.90;;;10.77;100.00;95291.75;4981825;28;20463;-77
2024/02/10 00:40:23;;;;;;;2.80;1.00;;;10.20;99.90;;;10.83;100.00;95295.22;4981366;28;21778;-77
2024/02/10 00:42:52;;;;;;;1.17;1.00;;;10.20;99.90;;;10.82;100.00;95293.63;4980506;28;20886;-77
2024/02/10 00:45:22;;;;;;;3.73;1.30;;;10.10;99.90;;;10.81;100.00;95297.28;4979976;28;20468;-77
2024/02/10 00:47:52;;;;;;;1.00;0.90;;;10.20;99.90;;;10.79;100.00;95288.91;4980029;28;20940;-77
2024/02/10 00:50:21;;;;;;;1.20;1.10;;;10.20;99.90;;;10.81;100.00;95281.59;4981061;28;20942;-76
2024/02/10 00:52:51;;;;;;;1.20;1.10;;;10.20;99.90;;;10.80;100.00;95288.63;4981323;28;20463;-76
2024/02/10 00:55:25;;;;;;;1.67;1.10;;;10.10;99.90;;;10.79;100.00;95286.28;4980617;28;20645;-77
2024/02/10 00:57:55;;;;;;;1.73;1.27;;;10.00;99.90;;;10.77;100.00;95288.38;4981533;28;20554;-77
2024/02/10 01:00:24;;;;;;;4.23;1.43;;;10.10;99.90;;;10.80;100.00;95286.03;4980146;28;21078;-76
2024/02/10 01:02:54;;;;;;;11.17;1.20;;;10.10;99.90;;;10.79;100.00;95287.09;4981181;28;20470;-77
2024/02/10 01:05:22;;;;;;;1.30;1.07;;;10.10;99.90;;;10.77;100.00;95281.31;4980946;28;20804;-76
2024/02/10 01:07:50;;;;;;;2.70;1.03;;;10.10;99.90;;;10.77;100.00;95277.91;4979714;28;20505;-76
2024/02/10 01:10:20;;;;;;;1.10;1.00;;;10.10;99.90;;;10.75;100.00;95282.63;4980453;28;20882;-76
2024/02/10 01:12:49;;;;;;;1.13;1.03;;;10.00;99.90;;;10.77;100.00;95281.31;4980217;28;20551;-76
2024/02/10 01:15:21;;;;;;;1.40;1.20;;;10.10;99.90;;;10.77;100.00;95273.47;4978877;28;20467;-76
2024/02/10 01:17:50;;;;;;;1.10;1.00;;;10.00;99.90;;;10.77;100.00;95280.53;4980803;28;20506;-77
2024/02/10 01:20:19;;;;;;;1.43;1.33;;;10.10;99.90;;;10.75;100.00;95272.97;4981470;28;20826;-77
2024/02/10 01:22:47;;;;;;;1.80;1.20;;;10.10;99.90;;;10.74;100.00;95267.97;4979878;28;20551;-77
2024/02/10 01:25:16;;;;;;;1.30;1.20;;;10.10;99.90;;;10.70;100.00;95275.53;4979169;28;20483;-77
2024/02/10 01:27:46;;;;;;;1.90;1.43;;;10.30;99.90;;;10.71;100.00;95276.31;4980095;28;20543;-76
2024/02/10 01:30:17;;;;;;;1.33;1.20;;;10.20;99.90;;;10.72;100.00;95288.34;4978696;28;20915;-76
2024/02/10 01:32:48;;;;;;;2.70;1.30;;;10.10;99.90;;;10.71;100.00;95284.97;4981071;28;20495;-76
2024/02/10 01:35:17;;;;;;;1.93;1.57;;;10.10;99.90;;;10.74;100.00;95278.44;4980243;28;21008;-77
2024/02/10 01:37:46;;;;;;;1.53;1.43;;;10.10;99.90;;;10.74;100.00;95275.81;4979250;28;20471;-77
2024/02/10 01:40:16;;;;;;;2.40;1.27;;;10.00;99.90;;;10.72;100.00;95283.94;4980864;28;20986;-77
2024/02/10 01:42:45;;;;;;;1.63;1.33;;;10.10;99.90;;;10.73;100.00;95279.47;4983693;28;20475;-76
2024/02/10 01:45:14;;;;;;;2.03;1.43;;;10.10;99.90;;;10.72;100.00;95278.69;4982995;28;20751;-77
2024/02/10 01:47:44;;;;;;;1.50;1.40;;;10.10;99.90;;;10.71;100.00;95276.31;4983481;28;20583;-77
2024/02/10 01:50:14;;;;;;;2.00;1.90;;;10.10;99.90;;;10.68;100.00;95267.19;4983894;28;20979;-76
2024/02/10 01:52:45;;;;;;;2.80;1.60;;;10.20;99.90;;;10.65;100.00;95269.50;4984183;28;21058;-76
2024/02/10 01:55:14;;;;;;;1.70;1.60;;;10.10;99.90;;;10.67;100.00;95270.03;4983434;28;20519;-77
2024/02/10 01:57:50;;;;;;;2.10;1.80;;;10.00;99.90;;;10.67;100.00;95272.66;4984230;28;20475;-76
2024/02/10 02:00:20;;;;;;;1.97;1.30;;;10.00;99.90;;;10.67;100.00;95270.03;4985842;28;20444;-77
2024/02/10 02:02:49;;;;;;;1.83;1.60;;;10.10;99.90;;;10.66;100.00;95269.25;4983834;28;20647;-76
2024/02/10 02:05:21;;;;;;;3.07;1.60;;;10.00;99.90;;;10.70;100.00;95259.84;4983239;28;20815;-76
2024/02/10 02:07:51;;;;;;;2.60;1.60;;;10.10;99.90;;;10.63;100.00;95269.75;4984179;28;20574;-76
2024/02/10 02:10:21;;;;;;;1.80;1.40;;;10.00;99.90;;;10.68;100.00;95266.38;4983744;28;20917;-76
2024/02/10 02:12:53;;;;;;;1.43;1.33;;;10.10;99.90;;;10.69;100.00;95265.34;4983922;28;20464;-77
2024/02/10 02:15:22;;;;;;;1.57;1.47;;;10.00;99.90;;;10.67;100.00;95262.97;4982720;28;20498;-76
2024/02/10 02:17:51;;;;;;;1.73;1.63;;;10.00;99.90;;;10.66;100.00;95268.44;4982887;28;20956;-76
2024/02/10 02:20:22;;;;;;;1.50;1.40;;;10.00;99.90;;;10.65;100.00;95266.91;4983541;28;20534;-77
2024/02/10 02:22:53;;;;;;;1.90;1.60;;;10.00;99.90;;;10.65;100.00;95277.34;4982258;28;20471;-77
2024/02/10 02:25:23;;;;;;;5.00;2.03;;;9.90;99.90;;;10.65;100.00;95272.13;4983903;28;20554;-76
2024/02/10 02:27:52;;;;;;;3.97;1.83;;;10.00;99.90;;;10.65;100.00;95272.13;4984400;28;20612;-76
2024/02/10 02:30:20;;;;;;;1.57;1.40;;;9.90;99.90;;;10.65;100.00;95267.69;4982219;28;20901;-77
2024/02/10 02:32:50;;;;;;;2.00;1.80;;;10.00;99.90;;;10.63;100.00;95268.97;4983269;28;20461;-77
2024/02/10 02:35:19;;;;;;;2.57;1.67;;;10.00;99.90;;;10.64;100.00;95271.34;4983286;28;20966;-76
2024/02/10 02:37:47;;;;;;;2.13;1.70;;;10.00;99.90;;;10.61;100.00;95266.63;4983663;28;20499;-77
2024/02/10 02:40:17;;;;;;;2.50;1.67;;;9.90;99.90;;;10.68;100.00;95256.72;4983218;28;20468;-77
2024/02/10 02:42:46;;;;;;;1.70;1.60;;;9.90;99.90;;;10.72;100.00;95255.19;4982646;28;20455;-77
2024/02/10 02:45:15;;;;;;;1.53;1.27;;;10.00;99.90;;;10.68;100.00;95255.94;4982331;28;20459;-76
2024/02/10 02:47:43;;;;;;;2.07;1.87;;;9.90;99.90;;;10.67;100.00;95249.91;4982326;28;20506;-77
2024/02/10 02:50:14;;;;;;;4.40;1.70;;;9.90;99.90;;;10.65;100.00;95240.78;4982674;28;20456;-76
2024/02/10 02:52:43;;;;;;;3.10;1.73;;;9.90;99.90;;;10.67;100.00;95246.50;4983500;28;20873;-77
2024/02/10 02:55:12;;;;;;;6.50;1.50;;;9.90;99.90;;;10.67;100.00;95238.66;4983067;28;21033;-76
2024/02/10 02:57:44;;;;;;;2.83;2.10;;;9.90;99.90;;;10.63;100.00;95238.41;4983679;28;20471;-77
2024/02/10 03:00:14;;;;;;;2.37;1.67;;;9.90;99.90;;;10.64;100.00;95247.03;4981683;28;20468;-76
2024/02/10 03:02:42;;;;;;;2.10;1.70;;;9.90;99.90;;;10.59;100.00;95247.78;4982636;28;20519;-77
2024/02/10 03:05:12;;;;;;;1.83;1.50;;;9.90;99.90;;;10.60;100.00;95239.72;4982268;28;20468;-76
2024/02/10 03:07:45;;;;;;;2.13;1.47;;;9.90;99.90;;;10.62;100.00;95251.75;4985301;28;20495;-77
2024/02/10 03:10:16;;;;;;;1.60;1.30;;;9.90;99.90;;;10.61;100.00;95250.94;4984366;28;20484;-77
2024/02/10 03:12:48;;;;;;;4.70;1.60;;;9.90;99.90;;;10.60;100.00;95249.38;4982083;28;21951;-77
2024/02/10 03:15:17;;;;;;;1.80;1.70;;;9.90;99.90;;;10.60;100.00;95234.47;4982475;28;20495;-76
2024/02/10 03:17:49;;;;;;;1.67;1.33;;;9.90;99.90;;;10.66;100.00;95237.88;4982429;28;20870;-77
2024/02/10 03:20:21;;;;;;;2.10;1.90;;;9.90;99.90;;;10.65;100.00;95243.38;4982209;28;20456;-77
2024/02/10 03:22:58;;;;;;;2.53;1.73;;;10.00;99.90;;;10.64;100.00;95254.88;4982926;28;20521;-76
2024/02/10 03:25:28;;;;;;;1.93;1.73;;;9.90;99.90;;;10.59;100.00;95240.75;4982368;28;20514;-77
2024/02/10 03:27:57;;;;;;;2.90;1.80;;;9.90;99.90;;;10.60;100.00;95237.09;4982634;28;20484;-77
2024/02/10 03:30:26;;;;;;;7.20;1.80;;;9.90;99.90;;;10.60;100.00;95239.72;4982302;28;20801;-77
2024/02/10 03:32:55;;;;;;;4.20;1.60;;;9.80;99.90;;;10.57;100.00;95255.91;4982594;28;20492;-77
2024/02/10 03:35:26;;;;;;;4.70;1.63;;;9.80;99.90;;;10.52;100.00;95247.25;4982066;28;21013;-77
2024/02/10 03:37:55;;;;;;;2.27;1.73;;;9.80;99.90;;;10.48;100.00;95252.19;4982824;28;20988;-77
2024/02/10 03:40:23;;;;;;;1.67;1.43;;;9.70;99.90;;;10.42;100.00;95253.22;4982131;28;20464;-77
2024/02/10 03:42:52;;;;;;;1.73;1.63;;;9.70;99.90;;;10.41;100.00;95241.19;4982757;28;20459;-76
2024/02/10 03:45:21;;;;;;;1.93;1.70;;;9.70;99.90;;;10.43;100.00;95244.34;4979387;28;20475;-77
2024/02/10 03:47:50;;;;;;;3.90;2.20;;;9.70;99.90;;;10.43;100.00;95239.13;4982200;28;20471;-77
2024/02/10 03:50:19;;;;;;;3.83;1.83;;;9.70;99.90;;;10.42;100.00;95232.31;4980474;28;20862;-77
2024/02/10 03:52:48;;;;;;;4.97;1.70;;;9.70;99.90;;;10.44;100.00;95235.47;4981506;28;20518;-77
2024/02/10 03:55:17;;;;;;;1.63;1.53;;;9.70;99.90;;;10.49;100.00;95226.84;4980654;28;20456;-77
2024/02/10 03:57:45;;;;;;;5.27;1.83;;;9.70;99.90;;;10.48;100.00;95222.69;4980995;28;20533;-76
2024/02/10 04:00:25;;;;;;;2.20;2.00;;;9.80;99.90;;;10.47;100.00;95229.72;4981576;28;20489;-76
2024/02/10 04:02:56;;;;;;;3.40;1.50;;;9.80;99.90;;;10.47;100.00;95229.72;4980618;28;20474;-77
2024/02/10 04:05:34;;;;;;;1.77;1.57;;;9.70;99.90;;;10.41;100.00;95225.50;4981730;28;20948;-77
2024/02/10 04:08:03;;;;;;;3.50;1.87;;;9.70;99.90;;;10.43;100.00;95213.00;4980292;28;20471;-77
2024/02/10 04:10:32;;;;;;;1.63;1.53;;;9.60;99.90;;;10.41;100.00;95222.91;4981245;28;21054;-77
2024/02/10 04:13:08;;;;;;;5.03;1.80;;;9.70;99.90;;;10.40;100.00;95218.72;4979257;28;21061;-76
2024/02/10 04:15:37;;;;;;;3.10;2.07;;;9.70;99.90;;;10.37;100.00;95221.06;4977714;28;20538;-78
2024/02/10 04:18:07;;;;;;;2.40;1.87;;;9.60;99.90;;;10.39;100.00;95225.00;4977396;28;20472;-83
2024/02/10 04:20:36;;;;;;;7.20;4.80;;;9.70;99.90;;;10.41;100.00;95220.28;4977504;28;20500;-80
2024/02/10 04:23:09;;;;;;;2.57;1.90;;;9.70;99.90;;;10.35;100.00;95223.94;4979291;28;20463;-80
2024/02/10 04:25:39;;;;;;;2.83;1.53;;;9.60;99.90;;;10.31;100.00;95220.25;4977270;28;20575;-78
2024/02/10 04:28:08;;;;;;;3.07;1.90;;;9.60;99.90;;;10.30;100.00;95210.84;4977102;28;20498;-77
2024/02/10 04:30:36;;;;;;;4.37;2.07;;;9.60;99.90;;;10.32;100.00;95216.59;4979548;28;20554;-78
2024/02/10 04:33:06;;;;;;;1.80;1.70;;;9.60;99.90;;;10.32;100.00;95216.59;4980264;28;20684;-78
2024/02/10 04:35:35;;;;;;;3.80;2.10;;;9.60;99.90;;;10.32;100.00;95206.16;4979563;28;20564;-78
2024/02/10 04:38:07;;;;;;;8.67;1.90;;;9.60;99.90;;;10.28;100.00;95210.31;4981190;28;20813;-78
2024/02/10 04:40:36;;;;;;;3.70;1.90;;;9.60;99.90;;;10.30;100.00;95210.06;4980594;28;20701;-78
2024/02/10 04:43:06;;;;;;;4.27;2.30;;;9.60;99.90;;;10.28;100.00;95220.75;4980073;28;20578;-78
2024/02/10 04:45:36;;;;;;;3.10;1.97;;;9.60;99.90;;;10.28;100.00;95218.16;4978917;28;20471;-78
2024/02/10 04:48:08;;;;;;;3.43;2.13;;;9.50;99.90;;;10.28;100.00;95223.38;4978844;28;20572;-78
2024/02/10 04:50:37;;;;;;;1.97;1.73;;;9.50;99.90;;;10.27;100.00;95224.44;4980812;28;20494;-78
2024/02/10 04:53:06;;;;;;;2.90;1.90;;;9.50;99.90;;;10.27;100.00;95234.09;4975027;28;20554;-82
2024/02/10 04:55:41;;;;;;;17.80;12.10;;;9.50;99.90;;;10.27;100.00;95232.25;4977441;28;20464;-80
2024/02/10 04:58:12;;;;;;;4.50;2.47;;;9.60;99.90;;;10.28;100.00;95238.25;4978411;28;20831;-79
2024/02/10 05:00:42;;;;;;;6.00;2.10;;;9.60;99.90;;;10.32;100.00;95236.72;4974746;28;20487;-78
2024/02/10 05:03:12;;;;;;;2.67;2.13;;;9.60;99.90;;;10.30;100.00;95236.97;4978113;28;20460;-78
2024/02/10 05:05:44;;;;;;;4.00;1.90;;;9.60;99.90;;;10.30;100.00;95233.56;4979102;28;20471;-78
2024/02/10 05:08:13;;;;;;;2.37;2.17;;;9.60;99.90;;;10.29;100.00;95235.41;4980898;28;20943;-78
2024/02/10 05:10:42;;;;;;;4.70;1.77;;;9.60;99.90;;;10.30;100.00;95233.56;4980983;28;20867;-78
2024/02/10 05:13:11;;;;;;;2.90;2.17;;;9.60;99.90;;;10.32;100.00;95226.25;4980190;28;20466;-78
2024/02/10 05:15:40;;;;;;;10.83;2.40;;;9.60;99.90;;;10.33;100.00;95215.56;4979029;28;20878;-81
2024/02/10 05:18:08;;;;;;;5.23;2.13;;;9.60;99.90;;;10.31;100.00;95219.50;4981357;28;20470;-81
2024/02/10 05:20:39;;;;;;;3.93;2.00;;;9.60;99.90;;;10.29;100.00;95230.19;4980899;28;20463;-77
2024/02/10 05:23:09;;;;;;;3.33;2.13;;;9.60;99.90;;;10.27;100.00;95228.88;4977730;28;20962;-84
2024/02/10 05:25:38;;;;;;;3.90;2.33;;;9.50;99.90;;;10.28;100.00;95223.38;4981564;28;20842;-77
2024/02/10 05:28:08;;;;;;;2.70;2.10;;;9.50;99.90;;;10.28;100.00;95225.19;4981163;28;20471;-77
2024/02/10 05:30:36;;;;;;;2.10;1.67;;;9.50;99.90;;;10.30;100.00;95223.13;4979008;28;20494;-77
2024/02/10 05:33:05;;;;;;;5.40;1.73;;;9.60;99.90;;;10.29;100.00;95216.31;4987918;28;20564;-77
2024/02/10 05:35:34;;;;;;;3.30;2.23;;;9.60;99.90;;;10.26;100.00;95228.06;4987675;28;20472;-77
2024/02/10 05:38:04;;;;;;;2.57;2.17;;;9.60;99.90;;;10.17;100.00;95223.59;4985806;28;20609;-77
2024/02/10 05:40:33;;;;;;;4.63;2.00;;;9.50;99.90;;;10.11;100.00;95218.31;4987106;28;20463;-77
2024/02/10 05:43:04;;;;;;;5.20;1.87;;;9.40;99.90;;;10.11;100.00;95225.34;4986992;28;20475;-77
2024/02/10 05:45:34;;;;;;;3.17;1.77;;;9.40;99.90;;;10.12;100.00;95226.94;4987057;28;20815;-78
2024/02/10 05:48:05;;;;;;;2.17;1.57;;;9.40;99.90;;;10.08;100.00;95220.63;4987929;28;20498;-77
2024/02/10 05:50:36;;;;;;;2.83;1.87;;;9.30;99.90;;;10.08;100.00;95223.25;4987627;28;21075;-77
2024/02/10 05:53:07;;;;;;;2.53;1.93;;;9.40;99.90;;;10.05;100.00;95218.53;4989090;28;20993;-77
2024/02/10 05:55:37;;;;;;;3.03;2.20;;;9.30;99.90;;;10.08;100.00;95210.97;4987896;28;20517;-77
2024/02/10 05:58:06;;;;;;;4.90;2.33;;;9.40;99.90;;;10.02;100.00;95217.22;4987358;28;20471;-77
2024/02/10 06:00:43;;;;;;;3.20;2.07;;;9.30;99.90;;;10.01;100.00;95222.69;4986988;28;20468;-77
2024/02/10 06:03:12;;;;;;;7.30;2.20;;;9.30;99.90;;;10.08;100.00;95204.97;4988237;28;20466;-77
2024/02/10 06:05:41;;;;;;;3.30;2.17;;;9.40;99.90;;;10.13;100.00;95203.16;4987258;28;20471;-77
2024/02/10 06:08:12;;;;;;;3.20;2.40;;;9.50;99.90;;;10.19;100.00;95205.84;4986712;28;20829;-77
2024/02/10 06:10:41;;;;;;;4.67;2.80;;;9.50;99.90;;;10.17;100.00;95192.25;4987778;28;20515;-77
2024/02/10 06:13:14;;;;;;;4.73;2.40;;;9.60;99.90;;;10.14;100.00;95196.16;4985910;28;20459;-77
2024/02/10 06:15:44;;;;;;;3.57;2.90;;;9.50;99.90;;;10.12;100.00;95200.81;4987365;28;21022;-77
2024/02/10 06:18:13;;;;;;;2.40;2.20;;;9.40;99.90;;;10.02;100.00;95206.78;4986541;28;20467;-77
2024/02/10 06:20:41;;;;;;;9.67;2.60;;;9.40;99.90;;;9.94;100.00;95204.63;4987327;28;20831;-77
2024/02/10 06:23:11;;;;;;;2.30;2.03;;;9.20;99.90;;;9.90;100.00;95213.22;4987161;28;20468;-77
2024/02/10 06:25:41;;;;;;;3.33;2.03;;;9.20;99.90;;;9.84;100.00;95214.22;4987665;28;20472;-77
2024/02/10 06:28:11;;;;;;;3.80;2.40;;;9.10;99.90;;;9.79;100.00;95209.75;4986544;28;20546;-77
2024/02/10 06:30:41;;;;;;;2.00;1.83;;;9.10;99.90;;;9.82;100.00;95206.63;4986599;28;20510;-77
2024/02/10 06:33:11;;;;;;;3.40;2.47;;;9.10;99.90;;;9.73;100.00;95208.16;4988887;28;20554;-77
2024/02/10 06:35:40;;;;;;;4.67;2.70;;;9.00;99.90;;;9.62;100.00;95214.34;4986873;28;20460;-77
2024/02/10 06:38:08;;;;;;;2.97;2.40;;;8.90;99.90;;;9.57;100.00;95220.34;4986907;28;20474;-77
2024/02/10 06:40:42;;;;;;;2.90;2.40;;;8.80;99.90;;;9.48;100.00;95211.38;4986810;28;20468;-77
2024/02/10 06:43:12;;;;;;;3.17;2.60;;;8.70;99.90;;;9.43;100.00;95213.97;4987219;28;20466;-76
2024/02/10 06:45:41;;;;;;;4.80;2.30;;;8.70;99.90;;;9.40;100.00;95217.06;4985925;28;20470;-77
2024/02/10 06:48:11;;;;;;;3.63;2.57;;;8.60;99.90;;;9.35;100.00;95211.81;4987812;28;21353;-77
2024/02/10 06:50:43;;;;;;;6.73;2.53;;;8.70;99.90;;;9.32;100.00;95220.13;4987071;28;20573;-77
2024/02/10 06:53:14;;;;;;;2.40;2.20;;;8.60;99.90;;;9.21;100.00;95231.50;4986287;28;20857;-77
2024/02/10 06:55:45;;;;;;;5.23;2.20;;;8.50;99.90;;;9.16;100.00;95236.69;4986656;28;20826;-77
2024/02/10 06:58:14;;;;;;;3.20;2.10;;;8.40;99.90;;;9.17;100.00;95235.63;4986955;28;20463;-78
2024/02/10 07:00:43;;;;;;;3.83;2.43;;;8.40;99.90;;;9.10;100.00;95240.25;4986304;28;20500;-77
2024/02/10 07:03:14;;;;;;;13.87;2.33;;;8.30;99.90;;;9.00;100.00;95245.38;4986567;28;20486;-77
2024/02/10 07:05:45;;;;;;;5.07;2.33;;;8.20;99.90;;;9.09;100.00;95243.91;4987709;28;20538;-77
2024/02/10 07:08:16;;;;;;;2.80;2.27;;;8.30;99.90;;;9.01;100.00;95249.56;4987037;28;20488;-77
2024/02/10 07:10:47;;;;;;;6.73;2.63;;;8.20;99.90;;;9.04;100.00;95256.88;4985737;28;20503;-77
2024/02/10 07:13:16;;;;;;;4.30;2.20;;;8.30;99.90;;;9.16;100.00;95252.31;4985506;28;20474;-77
2024/02/10 07:15:45;;;;;;;3.10;2.40;;;8.40;99.90;;;9.12;100.00;95255.66;4984041;28;20475;-77
2024/02/10 07:18:15;;;;;;;2.27;2.00;;;8.40;99.90;;;9.12;100.00;95264.28;4986187;28;20463;-77
2024/02/10 07:20:44;;;;;;;4.87;2.40;;;8.40;99.90;;;9.10;100.00;95255.91;4986675;28;20472;-77
2024/02/10 07:23:12;;;;;;;3.93;2.40;;;8.40;99.90;;;9.14;100.00;95254.38;4985760;28;20825;-77
2024/02/10 07:25:44;;;;;;;4.40;2.30;;;8.50;99.90;;;9.21;100.00;95256.78;4984755;28;20464;-77
2024/02/10 07:28:21;;;;;;;5.00;2.60;;;8.50;99.90;;;9.19;100.00;95254.44;4985480;28;21021;-77
2024/02/10 07:30:52;;;;;;;12.20;3.37;;;8.50;99.90;;;9.19;100.00;95254.44;4984846;28;21000;-77
2024/02/10 07:33:22;;;;;;;4.60;3.43;;;8.50;99.90;;;9.21;100.00;95254.19;4985791;28;20460;-76
2024/02/10 07:35:51;;;;;;;6.93;3.70;;;8.50;99.90;;;9.28;100.00;95263.38;4985764;28;20475;-77
2024/02/10 07:38:20;;;;;;;3.60;2.87;;;8.70;99.90;;;9.27;100.00;95261.78;4985547;28;20813;-77
2024/02/10 07:40:49;;;;;;;5.43;3.30;;;8.60;99.90;;;9.26;100.00;95256.84;4985684;28;20859;-77
2024/02/10 07:43:19;;;;;;;3.77;3.13;;;8.60;99.90;;;9.29;100.00;95262.34;4985140;28;21012;-77
2024/02/10 07:45:52;;;;;;;6.10;3.80;;;8.60;99.90;;;9.30;100.00;95261.28;4984048;28;20535;-77
2024/02/10 07:48:21;;;;;;;3.90;3.47;;;8.60;99.90;;;9.26;100.00;95255.03;4985721;28;20464;-77
2024/02/10 07:50:52;;;;;;;5.60;3.47;;;8.70;99.90;;;9.36;100.00;95249.91;4986331;28;20499;-77
2024/02/10 07:53:21;;;;;;;9.03;3.53;;;8.70;99.90;;;9.44;100.00;95257.25;4985639;28;20476;-76
2024/02/10 07:55:50;;;;;;;4.70;3.27;;;8.80;99.90;;;9.41;100.00;95265.56;4985424;28;20515;-77
2024/02/10 07:58:21;;;;;;;4.90;3.40;;;8.80;99.90;;;9.41;100.00;95268.19;4985952;28;20838;-77
2024/02/10 08:00:50;;;;;;;4.03;3.10;;;8.80;99.90;;;9.45;100.00;95279.69;4984778;28;20468;-77
2024/02/10 08:03:20;;;;;;;7.10;2.63;;;8.80;99.90;;;9.47;100.00;95277.63;4984555;28;20475;-77
2024/02/10 08:05:51;;;;;;;6.40;3.57;;;8.80;99.90;;;9.50;100.00;95284.19;4984623;28;20470;-76
2024/02/10 08:08:23;;;;;;;3.70;3.13;;;8.80;99.90;;;9.61;100.00;95278.78;4985084;28;20598;-77
2024/02/10 08:10:53;;;;;;;9.13;3.30;;;8.90;99.90;;;9.70;100.00;95278.31;4984561;28;20578;-77
2024/02/10 08:13:25;;;;;;;5.57;3.10;;;9.00;99.90;;;9.74;100.00;95280.19;4984097;28;20839;-77
2024/02/10 08:15:55;;;;;;;4.77;2.93;;;9.00;99.90;;;9.74;100.00;95292.44;4983662;28;20464;-77
2024/02/10 08:18:26;;;;;;;5.83;2.93;;;9.10;99.90;;;9.76;100.00;95292.97;4985126;28;20468;-77
2024/02/10 08:20:57;;;;;;;3.30;3.00;;;9.10;99.90;;;9.79;100.00;95295.13;4985297;28;20479;-77
2024/02/10 08:23:26;;;;;;;5.23;3.70;;;9.10;99.90;;;9.86;100.00;95295.66;4984242;28;20476;-77
2024/02/10 08:25:54;;;;;;;6.77;3.53;;;9.20;99.90;;;9.89;100.00;95301.16;4984433;28;20471;-77
2024/02/10 08:28:26;;;;;;;5.60;3.53;;;9.20;99.90;;;9.90;100.00;95296.75;4984208;28;20459;-77
2024/02/10 08:30:57;;;;;;;4.63;3.67;;;9.20;99.90;;;9.96;100.00;95303.59;4984954;28;20477;-77
2024/02/10 08:33:30;;;;;;;4.20;3.20;;;9.20;99.90;;;9.97;100.00;95290.28;4984777;28;20885;-77
2024/02/10 08:35:59;;;;;;;8.13;3.47;;;9.20;99.90;;;10.00;100.00;95287.16;4984601;28;20464;-77
2024/02/10 08:38:29;;;;;;;5.10;3.53;;;9.20;99.90;;;10.03;100.00;95276.19;4983615;28;20530;-77
2024/02/10 08:40:57;;;;;;;5.43;3.10;;;9.40;99.90;;;10.07;100.00;95273.88;4984744;28;20467;-77
2024/02/10 08:43:27;;;;;;;5.97;3.67;;;9.40;99.90;;;10.10;100.00;95270.75;4985149;28;20953;-77
2024/02/10 08:45:57;;;;;;;5.53;4.23;;;9.40;99.90;;;10.11;100.00;95267.91;4984550;28;20494;-77
2024/02/10 08:48:26;;;;;;;9.23;4.70;;;9.40;99.90;;;10.16;100.00;95269.00;4986748;28;20503;-77
2024/02/10 08:50:55;;;;;;;5.10;4.10;;;9.40;99.90;;;10.21;100.00;95259.38;4985971;28;20918;-77
2024/02/10 08:53:24;;;;;;;5.27;4.10;;;9.50;99.90;;;10.24;100.00;95253.63;4984168;28;20841;-77
2024/02/10 08:55:53;;;;;;;4.10;3.27;;;9.50;99.90;;;10.30;100.00;95255.25;4984957;28;20548;-77
2024/02/10 08:58:22;;;;;;;9.60;4.00;;;9.60;99.90;;;10.33;100.00;95251.34;4983794;28;20475;-77
2024/02/10 09:00:54;;;;;;;6.03;3.30;;;9.60;99.90;;;10.34;100.00;95251.09;4984861;28;20958;-77
2024/02/10 09:03:23;;;;;;;3.93;3.47;;;9.60;99.90;;;10.32;100.00;95258.38;4983111;28;20495;-77
2024/02/10 09:05:51;;;;;;;3.17;2.80;;;9.60;99.90;;;10.34;100.00;95256.31;4984381;28;20490;-77
2024/02/10 09:08:22;;;;;;;3.60;3.00;;;9.60;99.90;;;10.37;100.00;95247.97;4983872;28;20877;-77
2024/02/10 09:10:51;;;;;;;6.33;3.07;;;9.60;99.90;;;10.43;100.00;95252.19;4984218;28;20467;-77
2024/02/10 09:13:19;;;;;;;4.17;3.23;;;9.70;99.90;;;10.46;100.00;95253.50;4983465;28;20802;-77
2024/02/10 09:15:48;;;;;;;3.83;3.10;;;9.70;99.90;;;10.47;100.00;95258.47;4983375;28;21119;-77
2024/02/10 09:18:18;;;;;;;2.60;2.40;;;9.80;99.90;;;10.51;100.00;95256.94;4984157;28;20482;-77
2024/02/10 09:20:47;;;;;;;3.37;3.07;;;9.80;99.90;;;10.55;100.00;95257.97;4984452;28;20472;-77
2024/02/10 09:23:15;;;;;;;2.83;2.33;;;9.90;99.90;;;10.56;100.00;95262.16;4984718;28;20534;-77
2024/02/10 09:25:43;;;;;;;3.93;2.87;;;9.90;99.90;;;10.57;100.00;95255.91;4983904;28;20472;-77
2024/02/10 09:28:12;;;;;;;3.30;2.73;;;9.80;99.90;;;10.59;100.00;95253.81;4984085;28;21012;-77
2024/02/10 09:30:41;;;;;;;3.50;2.80;;;10.00;99.90;;;10.63;100.00;95259.31;4982693;28;20467;-77
2024/02/10 09:33:24;;;;;;;3.50;2.27;;;9.90;99.90;;;10.65;100.00;95252.00;4984500;28;20499;-77
2024/02/10 09:35:53;;;;;;;2.93;2.50;;;9.90;99.90;;;10.68;100.00;95250.72;4985437;28;20459;-77
2024/02/10 09:38:22;;;;;;;2.93;2.63;;;10.00;99.90;;;10.68;100.00;95248.09;4983578;28;20475;-77
2024/02/10 09:40:56;;;;;;;2.93;2.40;;;10.10;99.90;;;10.67;100.00;95254.34;4984657;28;20802;-77
2024/02/10 09:43:32;;;;;;;3.37;2.70;;;10.00;99.90;;;10.70;100.00;95248.63;4983724;28;21226;-77
2024/02/10 09:46:06;;;;;;;11.10;2.90;;;10.00;99.90;;;10.77;100.00;95247.34;4983906;28;21171;-77
2024/02/10 09:48:44;;;;;;;6.37;2.90;;;10.00;99.90;;;10.81;100.00;95245.00;4984380;28;20457;-77
2024/02/10 09:51:13;;;;;;;3.13;2.17;;;10.10;99.90;;;10.78;100.00;95243.69;4984345;28;20459;-77
2024/02/10 09:53:42;;;;;;;4.30;2.40;;;10.10;99.90;;;10.76;100.00;95245.00;4983629;28;20459;-77
2024/02/10 09:56:13;;;;;;;3.60;2.60;;;10.00;99.90;;;10.80;100.00;95243.41;4983169;28;20464;-77
2024/02/10 09:58:46;;;;;;;2.87;2.50;;;10.10;99.90;;;10.83;100.00;95245.53;4983828;28;20550;-77
2024/02/10 10:01:15;;;;;;;3.80;3.13;;;10.20;99.90;;;10.81;100.00;95231.94;4984017;28;20464;-77
2024/02/10 10:03:45;;;;;;;2.60;2.30;;;10.10;99.90;;;10.86;100.00;95245.03;4987698;28;20579;-77
2024/02/10 10:06:14;;;;;;;5.57;2.60;;;10.10;99.90;;;10.87;100.00;95234.28;4987050;28;21024;-77
2024/02/10 10:08:43;;;;;;;5.73;2.50;;;10.10;99.90;;;10.88;100.00;95235.09;4988539;28;20466;-77
2024/02/10 10:11:12;;;;;;;3.90;2.60;;;10.20;99.90;;;10.93;100.00;95237.72;4986738;28;20575;-77
2024/02/10 10:13:40;;;;;;;3.33;2.10;;;10.20;99.90;;;10.95;100.00;95227.78;4986103;28;20553;-77
2024/02/10 10:16:11;;;;;;;5.00;2.10;;;10.20;99.90;;;10.99;100.00;95244.53;4986496;28;20518;-76
2024/02/10 10:18:41;;;;;;;2.57;2.30;;;10.20;99.90;;;11.03;100.00;95240.34;4986760;28;20519;-77
2024/02/10 10:21:13;;;;;;;3.23;1.97;;;10.30;99.90;;;11.06;100.00;95237.22;4986930;28;20463;-77
2024/02/10 10:23:46;;;;;;;5.33;2.07;;;10.40;99.90;;;11.05;100.00;95238.25;4987643;28;20468;-77
2024/02/10 10:26:14;;;;;;;2.43;1.90;;;10.40;99.90;;;11.08;100.00;95242.97;4987217;28;20479;-77
2024/02/10 10:28:48;;;;;;;4.47;2.10;;;10.40;99.90;;;11.15;100.00;95240.09;4988018;28;20562;-77